createdAt,value
2018-12-21T00:04:39.993Z,6.91
2018-12-21T00:09:42.769Z,6.93
2018-12-21T00:14:45.571Z,6.88
2018-12-21T00:19:48.256Z,6.91
2018-12-21T00:24:51.021Z,6.94
2018-12-21T00:29:53.562Z,6.87
2018-12-21T00:35:01.924Z,6.95
2018-12-21T00:40:11.860Z,7.00
2018-12-21T00:45:16.341Z,7.07
2018-12-21T00:50:18.981Z,7.09
2018-12-21T00:55:21.570Z,7.07
2018-12-21T01:00:25.067Z,7.17
2018-12-21T01:05:27.712Z,7.14
2018-12-21T01:10:30.605Z,7.21
2018-12-21T01:15:33.231Z,7.34
2018-12-21T01:20:36.009Z,7.33
2018-12-21T01:25:39.198Z,7.30
2018-12-21T01:30:41.861Z,7.24
2018-12-21T01:35:44.603Z,7.15
2018-12-21T01:40:47.215Z,7.25
2018-12-21T01:45:49.854Z,7.26
2018-12-21T01:50:52.720Z,7.22
2018-12-21T01:55:55.265Z,7.25
2018-12-21T02:00:58.484Z,7.33
2018-12-21T02:06:01.406Z,7.28
2018-12-21T02:11:04.332Z,7.32
2018-12-21T02:16:06.975Z,7.36
2018-12-21T02:21:09.538Z,7.36
2018-12-21T02:26:12.277Z,7.35
2018-12-21T02:31:14.909Z,7.37
2018-12-21T02:36:17.691Z,7.32
2018-12-21T02:41:20.460Z,7.34
2018-12-21T02:46:23.099Z,7.26
2018-12-21T02:51:25.894Z,7.30
2018-12-21T02:56:28.908Z,7.23
2018-12-21T03:01:31.531Z,7.10
2018-12-21T03:06:34.107Z,7.09
2018-12-21T03:11:36.779Z,7.18
2018-12-21T03:16:39.635Z,7.16
2018-12-21T03:21:42.480Z,7.24
2018-12-21T03:26:45.114Z,7.25
2018-12-21T03:31:47.706Z,7.23
2018-12-21T03:36:50.466Z,7.19
2018-12-21T03:41:53.164Z,7.31
2018-12-21T03:46:55.876Z,7.21
2018-12-21T03:51:58.433Z,7.23
2018-12-21T03:57:01.061Z,7.22
2018-12-21T04:02:03.742Z,7.25
2018-12-21T04:07:06.555Z,7.23
2018-12-21T04:12:09.132Z,7.28
2018-12-21T04:17:11.770Z,7.18
2018-12-21T04:22:15.183Z,7.27
2018-12-21T04:27:17.862Z,7.15
2018-12-21T04:32:20.651Z,7.24
2018-12-21T04:37:23.989Z,7.22
2018-12-21T04:42:26.720Z,7.17
2018-12-21T04:47:30.175Z,7.27
2018-12-21T04:57:46.814Z,7.22
2018-12-21T05:02:49.705Z,7.21
2018-12-21T05:07:53.171Z,7.15
2018-12-21T05:12:56.571Z,7.14
2018-12-21T05:17:59.254Z,7.05
2018-12-21T05:23:01.826Z,7.09
2018-12-21T05:28:04.989Z,7.14
2018-12-21T05:33:07.560Z,7.07
2018-12-21T05:38:10.887Z,7.00
2018-12-21T05:43:13.900Z,6.86
2018-12-21T05:48:16.833Z,6.83
2018-12-21T05:53:19.840Z,6.64
2018-12-21T05:58:22.798Z,6.58
2018-12-21T06:03:25.698Z,6.62
2018-12-21T06:08:28.396Z,6.56
2018-12-21T06:13:31.197Z,6.54
2018-12-21T06:18:35.333Z,6.62
2018-12-21T06:23:37.923Z,6.62
2018-12-21T06:28:41.115Z,6.45
2018-12-21T06:33:43.798Z,6.45
2018-12-21T06:38:47.252Z,6.42
2018-12-21T06:43:50.419Z,6.50
2018-12-21T06:48:53.033Z,6.42
2018-12-21T06:53:55.688Z,6.48
2018-12-21T06:58:58.439Z,6.36
2018-12-21T07:04:01.140Z,6.50
2018-12-21T07:09:05.601Z,6.50
2018-12-21T07:14:08.192Z,6.52
2018-12-21T07:19:10.799Z,6.46
2018-12-21T07:24:14.032Z,6.47
2018-12-21T07:29:16.614Z,6.46
2018-12-21T07:34:19.267Z,6.49
2018-12-21T07:39:21.831Z,6.43
2018-12-21T07:44:24.538Z,6.42
2018-12-21T07:49:27.232Z,6.55
2018-12-21T07:54:30.989Z,6.67
2018-12-21T07:59:33.652Z,6.57
2018-12-21T08:04:36.476Z,6.59
2018-12-21T08:09:39.054Z,6.43
2018-12-21T08:14:41.664Z,6.67
2018-12-21T08:19:45.920Z,6.73
2018-12-21T08:24:48.535Z,6.84
2018-12-21T08:29:51.348Z,6.79
2018-12-21T08:34:53.954Z,6.91
2018-12-21T08:39:56.799Z,6.98
2018-12-21T08:44:59.328Z,7.03
2018-12-21T08:50:01.898Z,7.01
2018-12-21T08:55:05.041Z,7.11
2018-12-21T09:00:09.788Z,7.22
2018-12-21T09:05:12.424Z,7.26
2018-12-21T09:10:15.028Z,7.37
2018-12-21T09:15:18.330Z,7.26
2018-12-21T09:20:20.947Z,7.37
2018-12-21T09:25:23.593Z,7.39
2018-12-21T09:30:26.550Z,7.47
2018-12-21T09:35:29.966Z,7.48
2018-12-21T09:40:32.933Z,7.63
2018-12-21T09:45:35.460Z,7.49
2018-12-21T09:50:38.361Z,7.55
2018-12-21T09:55:41.030Z,7.49
2018-12-21T10:00:43.573Z,7.46
2018-12-21T10:05:46.235Z,7.38
2018-12-21T10:10:50.612Z,7.45
2018-12-21T10:15:53.441Z,7.51
2018-12-21T10:20:56.157Z,7.67
2018-12-21T10:25:58.857Z,7.63
2018-12-21T10:31:01.404Z,7.64
2018-12-21T10:36:04.307Z,7.54
2018-12-21T10:41:06.969Z,7.54
2018-12-21T10:46:09.506Z,7.41
2018-12-21T10:51:12.130Z,7.41
2018-12-21T10:56:14.750Z,7.31
2018-12-21T11:01:17.473Z,7.32
2018-12-21T11:06:20.075Z,7.21
2018-12-21T11:11:22.655Z,7.24
2018-12-21T11:16:26.076Z,7.37
2018-12-21T11:21:28.963Z,7.27
2018-12-21T11:26:32.475Z,7.30
2018-12-21T11:31:35.387Z,7.36
2018-12-21T11:36:38.364Z,7.29
2018-12-21T11:41:41.073Z,7.72
2018-12-21T11:46:43.677Z,7.40
2018-12-21T11:51:46.484Z,7.24
2018-12-21T11:56:49.111Z,7.17
2018-12-21T12:01:51.976Z,7.14
2018-12-21T12:06:54.923Z,7.28
2018-12-21T12:11:57.581Z,7.24
2018-12-21T12:17:00.114Z,7.13
2018-12-21T12:22:03.373Z,7.27
2018-12-21T12:27:06.180Z,7.20
2018-12-21T12:32:08.773Z,7.20
2018-12-21T12:37:11.332Z,7.26
2018-12-21T12:42:13.914Z,7.18
2018-12-21T12:47:16.767Z,7.11
2018-12-21T12:52:19.406Z,6.97
2018-12-21T12:57:22.055Z,7.01
2018-12-21T13:02:24.763Z,7.02
2018-12-21T13:07:27.394Z,6.99
2018-12-21T13:12:30.155Z,6.86
2018-12-21T13:17:32.707Z,6.87
2018-12-21T13:22:35.377Z,6.85
2018-12-21T13:27:38.136Z,7.08
2018-12-21T13:32:40.947Z,6.85
2018-12-21T13:37:43.589Z,7.08
2018-12-21T13:42:46.786Z,7.14
2018-12-21T13:47:49.447Z,7.38
2018-12-21T13:52:51.989Z,7.04
2018-12-21T13:57:54.621Z,6.93
2018-12-21T14:02:57.608Z,6.87
2018-12-21T14:08:00.498Z,6.85
2018-12-21T14:13:03.074Z,6.85
2018-12-21T14:18:05.794Z,6.85
2018-12-21T14:23:08.709Z,6.83
2018-12-21T14:28:11.510Z,6.76
2018-12-21T14:33:14.219Z,6.83
2018-12-21T14:38:16.849Z,6.86
2018-12-21T14:43:19.592Z,6.97
2018-12-21T14:48:22.331Z,6.86
2018-12-21T14:53:25.131Z,6.89
2018-12-21T14:58:28.331Z,6.90
2018-12-21T15:03:31.243Z,6.98
2018-12-21T15:08:34.044Z,6.98
2018-12-21T15:13:36.848Z,6.99
2018-12-21T15:18:39.644Z,6.99
2018-12-21T15:23:42.185Z,7.00
2018-12-21T15:28:45.130Z,7.03
2018-12-21T15:33:47.977Z,7.19
2018-12-21T15:38:50.539Z,7.11
2018-12-21T15:43:53.515Z,7.06
2018-12-21T15:48:56.243Z,7.13
2018-12-21T15:53:58.813Z,7.17
2018-12-21T15:59:01.666Z,7.19
2018-12-21T16:04:04.882Z,7.20
2018-12-21T16:09:07.578Z,7.25
2018-12-21T16:14:10.278Z,7.47
2018-12-21T16:19:12.925Z,7.57
2018-12-21T16:24:15.738Z,7.40
2018-12-21T16:29:18.395Z,7.61
2018-12-21T16:34:20.957Z,7.80
2018-12-21T16:39:23.531Z,7.88
2018-12-21T16:44:26.425Z,8.05
2018-12-21T16:49:28.984Z,8.00
2018-12-21T16:54:32.558Z,8.13
2018-12-21T16:59:35.440Z,8.27
2018-12-21T17:04:38.132Z,8.41
2018-12-21T17:09:40.814Z,8.20
2018-12-21T17:14:43.711Z,8.24
2018-12-21T17:19:46.540Z,8.37
2018-12-21T17:24:49.157Z,8.46
2018-12-21T17:29:51.850Z,8.82
2018-12-21T17:34:55.913Z,8.73
2018-12-21T17:39:59.210Z,9.08
2018-12-21T17:45:01.797Z,9.51
2018-12-21T17:50:06.351Z,9.66
2018-12-21T17:55:08.953Z,10.12
2018-12-21T18:00:13.961Z,10.50
2018-12-21T18:05:16.757Z,10.67
2018-12-21T18:10:19.458Z,10.98
2018-12-21T18:15:22.254Z,10.86
2018-12-21T18:20:24.936Z,11.04
2018-12-21T18:25:27.650Z,11.01
2018-12-21T18:30:30.438Z,10.91
2018-12-21T18:35:33.961Z,11.03
2018-12-21T18:40:36.898Z,11.26
2018-12-21T18:45:39.531Z,11.19
2018-12-21T18:50:42.646Z,11.24
2018-12-21T18:55:46.400Z,11.33
2018-12-21T19:00:49.073Z,11.29
2018-12-21T19:05:51.659Z,11.29
2018-12-21T19:10:54.211Z,11.29
2018-12-21T19:15:57.562Z,11.40
2018-12-21T19:21:00.381Z,11.39
2018-12-21T19:26:02.995Z,11.33
2018-12-21T19:31:05.607Z,11.35
2018-12-21T19:36:08.388Z,11.18
2018-12-21T19:41:11.982Z,11.17
2018-12-21T19:46:14.903Z,11.34
2018-12-21T19:51:17.706Z,11.34
2018-12-21T19:56:20.504Z,11.29
2018-12-21T20:01:23.309Z,11.39
2018-12-21T20:06:25.898Z,11.81
2018-12-21T20:11:28.611Z,11.52
2018-12-21T20:16:31.424Z,11.66
2018-12-21T20:21:34.078Z,11.76
2018-12-21T20:26:37.463Z,11.96
2018-12-21T20:31:40.214Z,11.89
2018-12-21T20:36:42.804Z,11.70
2018-12-21T20:41:45.349Z,11.78
2018-12-21T20:46:47.946Z,11.63
2018-12-21T20:51:50.560Z,11.67
2018-12-21T20:56:53.674Z,11.61
2018-12-21T21:01:56.634Z,11.87
2018-12-21T21:06:59.408Z,11.65
2018-12-21T21:12:03.055Z,11.81
2018-12-21T21:17:05.837Z,11.70
2018-12-21T21:22:08.504Z,11.55
2018-12-21T21:27:11.099Z,11.53
2018-12-21T21:32:14.032Z,11.39
2018-12-21T21:37:16.826Z,11.58
2018-12-21T21:42:19.705Z,11.51
2018-12-21T21:47:22.524Z,11.36
2018-12-21T21:52:25.976Z,11.25
2018-12-21T21:57:29.390Z,11.28
2018-12-21T22:02:32.250Z,11.15
2018-12-21T22:07:35.099Z,11.19
2018-12-21T22:12:38.009Z,11.28
2018-12-21T22:17:40.630Z,11.28
2018-12-21T22:22:43.874Z,11.29
2018-12-21T22:27:48.075Z,11.47
2018-12-21T22:32:51.510Z,11.47
2018-12-21T22:37:54.152Z,11.26
2018-12-21T22:42:56.753Z,11.40
2018-12-21T22:47:59.309Z,11.31
2018-12-21T22:53:02.504Z,11.43
2018-12-21T22:58:05.279Z,11.28
2018-12-21T23:03:07.893Z,11.24
2018-12-21T23:08:11.106Z,11.30
2018-12-21T23:13:13.696Z,11.15
2018-12-21T23:18:16.488Z,11.27
2018-12-21T23:23:19.115Z,11.22
2018-12-21T23:28:21.922Z,11.28
2018-12-21T23:33:24.619Z,11.29
2018-12-21T23:38:27.336Z,11.39
2018-12-21T23:43:29.923Z,11.27
2018-12-21T23:48:32.745Z,11.51
2018-12-21T23:53:35.800Z,11.46
2018-12-21T23:58:38.704Z,11.38
